Latest Weather Observations for Avalon

IDV60901

Issued at 10:41 am EDT Sunday 21 December 2014 (issued every 10 minutes, with the page automatically refreshed every 10 minutes)

About weather observations | Map of Melbourne area stations | Latest observations for Melbourne area | Other Formats
Station Details ID: 087113 Name: AVALON AIRPORT Lat: -38.03 Lon: 144.48 Height: 10.6 m
Data from the previous 72 hours. | See also: Recent months at Avalon
Date/Time
EDT
Tmp

°C
App
Tmp
°C
Dew
Point
°C
Rel
Hum
%
Delta-T

°C
Wind Press
QNH
hPa
Press
MSL
hPa
Rain
since
9 am
mm
Dir
 
Spd
km/h
Gust
km/h
Spd
kts
Gust
kts
21/10:30am 22.2 21.7 14.8 63 4.4 E 11 22 6 12 1014.1 1014.1 0.0
21/10:00am 21.4 21.0 14.1 63 4.2 E 9 15 5 8 1014.2 1014.2 0.0
21/09:30am 20.7 20.5 13.6 64 4.1 NE 7 11 4 6 1014.6 1014.6 0.0
21/08:30am 18.1 17.0 13.2 73 2.8 ENE 11 13 6 7 1014.8 1014.8 0.0
21/08:00am 17.1 16.2 13.8 81 1.9 ENE 11 13 6 7 1014.6 1014.6 0.0
21/07:30am 15.9 15.0 13.6 86 1.3 NE 11 13 6 7 1014.5 1014.5 0.0
21/07:00am 13.9 14.6 12.3 90 0.9 CALM 0 7 0 4 1014.8 1014.8 0.0
21/06:30am 12.5 12.9 11.4 93 0.6 CALM 0 0 0 0 1015.0 1015.0 0.0
21/05:38am 12.8 11.9 11.4 91 0.7 N 7 7 4 4 1014.6 1014.6 0.0
21/05:30am 12.9 12.2 11.3 90 0.8 N 6 7 3 4 1014.6 1014.6 0.0
21/05:00am 13.9 13.4 12.8 93 0.6 N 7 11 4 6 1014.5 1014.5 0.0
21/04:30am 13.6 12.1 13.0 96 0.3 N 13 17 7 9 1014.2 1014.2 0.0
21/04:20am 12.9 11.2 12.3 96 0.3 N 13 17 7 9 1014.1 1014.1 0.0
21/04:00am 11.6 9.8 11.0 96 0.3 NNE 11 15 6 8 1014.3 1014.3 0.0
21/03:30am 10.3 8.4 9.2 93 0.5 N 9 9 5 5 1014.6 1014.6 0.0
21/03:00am 11.0 9.7 9.9 93 0.6 N 7 9 4 5 1015.0 1015.0 0.0
21/02:30am 11.1 9.8 9.9 92 0.6 NNW 7 9 4 5 1015.5 1015.5 0.0
21/02:00am 11.4 10.1 10.0 91 0.7 N 7 9 4 5 1015.8 1015.8 0.0
21/01:30am 12.6 13.0 11.3 92 0.7 CALM 0 0 0 0 1016.2 1016.2 0.0
21/01:00am 12.0 11.4 10.4 90 0.8 N 4 6 2 3 1016.6 1016.6 0.0
21/12:30am 12.9 13.2 11.0 88 1.0 CALM 0 0 0 0 1017.0 1017.0 0.0
 
Date/Time
EDT
Tmp

°C
App
Tmp
°C
Dew
Point
°C
Rel
Hum
%
Delta-T

°C
Wind Press
QNH
hPa
Press
MSL
hPa
Rain
since
9 am
mm
Dir
 
Spd
km/h
Gust
km/h
Spd
kts
Gust
kts
20/11:30pm 13.7 13.1 11.7 88 1.1 SE 6 7 3 4 1017.7 1017.7 0.0
20/11:00pm 14.1 13.3 11.8 86 1.2 SSE 7 11 4 6 1017.9 1017.9 0.0
20/10:30pm 14.3 13.5 11.6 84 1.4 SSE 7 9 4 5 1018.0 1018.0 0.0
20/10:00pm 14.2 13.3 11.4 83 1.5 SSE 7 9 4 5 1018.1 1018.1 0.0
20/09:30pm 14.7 13.0 11.3 80 1.8 SSE 11 15 6 8 1017.9 1017.9 0.0
20/09:00pm 15.7 13.7 11.5 76 2.3 S 13 17 7 9 1017.7 1017.7 0.0
20/08:30pm 16.6 13.8 11.5 72 2.8 SSE 17 19 9 10 1017.7 1017.7 0.0
20/08:00pm 17.6 14.4 11.4 67 3.4 SSE 19 24 10 13 1017.6 1017.6 0.0
20/07:30pm 18.4 14.7 11.5 64 3.8 SSE 22 30 12 16 1017.3 1017.3 0.0
20/07:00pm 18.9 15.3 11.7 63 4.0 S 22 30 12 16 1017.1 1017.1 0.0
20/06:30pm 19.4 15.4 11.7 61 4.2 SSE 24 33 13 18 1017.0 1017.0 0.0
20/05:30pm 20.3 15.7 11.2 56 5.0 S 26 32 14 17 1016.7 1016.7 0.0
20/05:00pm 20.8 16.8 11.7 56 5.1 S 24 39 13 21 1016.9 1016.9 0.0
20/04:30pm 21.1 17.1 11.7 55 5.2 S 24 35 13 19 1017.0 1017.0 0.0
20/04:00pm 21.3 17.2 11.3 53 5.5 S 24 33 13 18 1017.2 1017.2 0.0
20/03:30pm 21.8 18.3 12.1 54 5.5 SSE 22 28 12 15 1017.4 1017.4 0.0
20/03:00pm 21.7 17.5 12.3 55 5.3 ESE 26 35 14 19 1017.8 1017.8 0.0
20/02:30pm 21.7 17.4 12.0 54 5.4 ESE 26 37 14 20 1017.9 1017.9 0.0
20/02:00pm 24.0 21.4 9.2 39 8.0 SW 13 22 7 12 1017.7 1017.7 0.0
20/01:30pm 23.0 21.5 10.4 45 6.9 SW 9 19 5 10 1017.9 1017.9 0.0
20/01:00pm 22.3 19.7 9.5 44 6.9 WNW 13 26 7 14 1018.2 1018.2 0.0
20/12:30pm 21.2 19.2 10.1 49 6.0 SW 11 20 6 11 1018.6 1018.6 0.0
20/12:00pm 20.4 18.3 9.6 50 5.8 WSW 11 19 6 10 1018.9 1018.9 0.0
20/11:30am 19.7 17.2 9.6 52 5.4 W 13 20 7 11 1019.0 1019.0 0.0
20/11:00am 18.1 14.4 9.5 57 4.5 WSW 19 26 10 14 1019.3 1019.3 0.0
20/10:30am 17.8 14.0 9.9 60 4.2 WSW 20 33 11 18 1019.6 1019.6 0.0
20/10:00am 17.1 13.4 9.5 61 4.0 WSW 19 26 10 14 1019.6 1019.6 0.0
20/09:30am 16.8 13.5 9.5 62 3.8 WSW 17 24 9 13 1019.6 1019.6 0.0
20/09:00am 16.6 13.3 9.5 63 3.7 W 17 24 9 13 1019.5 1019.5 0.0
20/08:30am 15.6 12.2 9.3 66 3.2 W 17 22 9 12 1019.1 1019.1 0.0
20/08:00am 14.4 11.8 9.2 71 2.6 W 13 17 7 9 1018.9 1018.9 0.0
20/07:30am 13.1 10.8 9.0 76 2.1 W 11 13 6 7 1018.6 1018.6 0.0
20/07:00am 11.5 9.5 8.5 82 1.5 WNW 9 13 5 7 1018.4 1018.4 0.0
20/06:30am 10.1 7.4 7.5 84 1.2 NW 11 13 6 7 1018.2 1018.2 0.0
20/06:00am 9.6 7.2 7.0 84 1.2 NW 9 11 5 6 1018.0 1018.0 0.0
20/05:30am 9.6 6.8 7.0 84 1.2 NW 11 13 6 7 1018.0 1018.0 0.0
20/05:00am 9.8 7.0 7.1 83 1.3 NW 11 13 6 7 1017.8 1017.8 0.0
20/04:30am 9.8 6.7 7.2 84 1.2 NW 13 15 7 8 1017.8 1017.8 0.0
20/04:00am 9.2 6.4 7.0 86 1.0 NW 11 13 6 7 1018.0 1018.0 0.0
20/03:30am 9.9 7.1 6.8 81 1.5 NW 11 13 6 7 1018.0 1018.0 0.0
20/03:00am 9.8 7.0 7.1 83 1.3 NW 11 13 6 7 1018.2 1018.2 0.0
20/02:30am 10.4 7.3 7.1 80 1.6 NW 13 15 7 8 1018.3 1018.3 0.0
20/02:00am 10.3 7.5 6.8 79 1.6 NW 11 13 6 7 1018.7 1018.7 0.0
20/01:30am 10.1 7.3 6.8 80 1.6 NW 11 11 6 6 1018.9 1018.9 0.0
20/01:00am 9.8 6.9 6.5 80 1.5 NNW 11 11 6 6 1019.1 1019.1 0.0
20/12:30am 11.8 8.9 6.7 71 2.4 WNW 11 13 6 7 1019.5 1019.5 0.0
20/12:00am 12.2 9.4 6.9 70 2.5 WNW 11 15 6 8 1019.7 1019.7 0.0
 
Date/Time
EDT
Tmp

°C
App
Tmp
°C
Dew
Point
°C
Rel
Hum
%
Delta-T

°C
Wind Press
QNH
hPa
Press
MSL
hPa
Rain
since
9 am
mm
Dir
 
Spd
km/h
Gust
km/h
Spd
kts
Gust
kts
19/11:30pm 12.2 8.6 6.9 70 2.5 W 15 15 8 8 1020.0 1020.0 0.0
19/11:00pm 13.6 10.1 7.2 65 3.1 WSW 15 17 8 9 1020.1 1020.1 0.0
19/10:30pm 12.7 9.8 8.2 74 2.2 SSW 13 15 7 8 1020.1 1020.1 0.0
19/10:00pm 13.5 10.3 8.6 72 2.4 SSW 15 17 8 9 1019.9 1019.9 0.0
19/09:30pm 14.5 10.5 9.1 70 2.8 S 20 24 11 13 1019.7 1019.7 0.0
19/09:00pm 15.0 11.6 9.1 68 3.0 S 17 26 9 14 1019.7 1019.7 0.0
19/08:30pm 15.6 12.1 8.8 64 3.5 S 17 24 9 13 1019.7 1019.7 0.0
19/08:00pm 16.5 12.6 8.7 60 4.0 S 19 24 10 13 1019.5 1019.5 0.0
19/07:30pm 16.6 12.0 8.3 58 4.2 S 22 28 12 15 1019.2 1019.2 0.0
19/07:00pm 16.7 11.9 7.4 54 4.6 S 22 30 12 16 1018.7 1018.7 0.0
19/06:30pm 17.7 13.1 8.0 53 4.9 S 22 33 12 18 1018.4 1018.4 0.0
19/06:00pm 18.2 13.2 8.2 52 5.1 S 24 35 13 19 1018.1 1018.1 0.0
19/05:30pm 18.4 12.8 7.2 48 5.6 S 26 35 14 19 1018.0 1018.0 0.0
19/05:00pm 19.1 13.7 8.1 49 5.7 S 26 35 14 19 1018.0 1018.0 0.0
19/04:30pm 19.0 14.8 8.1 49 5.6 S 20 30 11 16 1017.8 1017.8 0.0
19/04:00pm 19.5 15.4 8.8 50 5.6 S 20 30 11 16 1017.7 1017.7 0.0
19/03:30pm 19.4 15.3 8.7 50 5.6 S 20 33 11 18 1017.6 1017.6 0.0
19/03:00pm 18.4 14.0 7.5 49 5.5 SSW 20 30 11 16 1017.8 1017.8 0.0
19/02:30pm 18.3 14.5 7.7 50 5.4 S 17 33 9 18 1017.6 1017.6 0.0
19/02:00pm 18.2 12.7 7.6 50 5.4 S 26 35 14 19 1017.8 1017.8 0.0
19/01:30pm 18.8 14.9 8.5 51 5.3 S 19 28 10 15 1017.6 1017.6 0.0
19/01:00pm 17.7 13.4 7.2 50 5.3 S 19 26 10 14 1017.8 1017.8 0.0
19/12:30pm 18.2 14.3 8.7 54 4.9 SSW 19 30 10 16 1017.8 1017.8 0.0
19/12:00pm 18.1 13.5 6.6 47 5.7 SW 20 28 11 15 1017.7 1017.7 0.0
19/11:30am 16.7 11.4 6.8 52 4.9 SW 24 39 13 21 1017.7 1017.7 0.0
19/11:00am 16.6 12.0 6.4 51 5.0 SSW 20 32 11 17 1017.5 1017.5 0.0
19/10:30am 16.9 12.6 7.8 55 4.6 WSW 20 30 11 16 1017.5 1017.5 0.0
19/10:00am 15.9 10.6 6.9 55 4.4 WSW 24 33 13 18 1017.4 1017.4 0.0
19/09:30am 16.2 11.7 8.4 60 4.0 WSW 22 35 12 19 1017.2 1017.2 0.0
19/09:00am 15.3 10.9 8.8 65 3.3 WSW 22 30 12 16 1017.1 1017.1 2.0
19/08:30am 14.1 10.0 8.5 69 2.8 W 20 30 11 16 1016.7 1016.7 2.0
19/08:00am 13.3 9.4 9.4 77 2.0 W 20 26 11 14 1016.5 1016.5 2.0
19/07:30am 12.0 8.3 9.4 84 1.3 W 19 24 10 13 1016.0 1016.0 2.0
19/07:00am 11.4 7.7 9.3 87 1.1 WNW 19 22 10 12 1015.8 1015.8 2.0
19/06:30am 10.1 6.9 8.5 90 0.8 WNW 15 19 8 10 1015.6 1015.6 2.0
19/06:00am 9.9 6.7 8.3 90 0.8 WNW 15 19 8 10 1015.3 1015.3 2.0
19/05:30am 10.1 6.5 8.2 88 0.9 W 17 20 9 11 1015.0 1015.0 2.0
19/05:00am 10.1 6.8 8.2 88 0.9 W 15 19 8 10 1014.7 1014.7 2.0
19/04:30am 9.9 6.2 8.0 88 0.9 WNW 17 20 9 11 1014.2 1014.2 2.0
19/04:00am 9.7 6.4 8.0 89 0.8 WNW 15 19 8 10 1014.0 1014.0 2.0
19/03:30am 9.8 6.5 8.1 89 0.8 WNW 15 17 8 9 1013.8 1013.8 2.0
19/03:00am 9.4 7.4 7.3 87 1.0 WNW 7 9 4 5 1013.9 1013.9 2.0
19/02:30am 10.3 8.2 8.1 86 1.1 NW 9 13 5 7 1013.8 1013.8 2.0
19/02:00am 10.4 7.5 8.2 86 1.1 WNW 13 15 7 8 1013.8 1013.8 2.0
19/01:30am 10.5 7.6 8.1 85 1.2 WNW 13 17 7 9 1013.7 1013.7 2.0
19/01:00am 10.5 7.5 7.9 84 1.3 WNW 13 15 7 8 1013.7 1013.7 2.0
19/12:30am 10.5 8.0 8.3 86 1.1 NW 11 13 6 7 1013.8 1013.8 2.0
19/12:00am 11.3 8.7 7.8 79 1.7 NW 11 15 6 8 1013.7 1013.7 2.0
 
Date/Time
EDT
Tmp

°C
App
Tmp
°C
Dew
Point
°C
Rel
Hum
%
Delta-T

°C
Wind Press
QNH
hPa
Press
MSL
hPa
Rain
since
9 am
mm
Dir
 
Spd
km/h
Gust
km/h
Spd
kts
Gust
kts
18/11:30pm 11.5 8.9 7.8 78 1.8 W 11 15 6 8 1013.5 1013.5 2.0
18/11:00pm 12.2 8.5 8.1 76 2.0 W 17 20 9 11 1013.5 1013.5 2.0
18/10:30pm 12.8 9.9 8.1 73 2.3 W 13 20 7 11 1013.4 1013.4 2.0
18/10:00pm 13.9 10.2 7.9 67 3.0 WSW 17 19 9 10 1013.1 1013.1 2.0
18/09:30pm 14.9 10.2 7.7 62 3.6 WSW 22 30 12 16 1012.5 1012.5 2.0
18/09:00pm 15.6 11.4 7.4 58 4.1 SW 19 26 10 14 1012.1 1012.1 2.0
18/08:30pm 16.3 12.1 8.3 59 4.1 SW 20 26 11 14 1011.5 1011.5 2.0
18/08:00pm 16.5 12.5 9.2 62 3.8 SW 20 30 11 16 1011.2 1011.2 2.0
18/07:30pm 17.3 13.5 9.7 61 4.0 SW 20 26 11 14 1010.6 1010.6 2.0
18/07:00pm 16.7 12.7 10.3 66 3.4 WSW 22 30 12 16 1010.1 1010.1 2.0
18/06:30pm 16.4 14.6 12.0 75 2.4 WSW 13 19 7 10 1009.6 1009.6 2.0
18/06:00pm 16.1 12.0 10.2 68 3.1 WSW 22 30 12 16 1009.2 1009.2 2.0
18/05:30pm 16.6 13.5 11.7 73 2.7 WSW 19 30 10 16 1008.6 1008.6 2.0
18/05:00pm 15.7 13.0 13.5 87 1.2 WNW 20 28 11 15 1008.6 1008.6 2.0
18/04:30pm 15.1 11.2 13.3 89 1.0 W 26 35 14 19 1008.7 1008.7 1.6
18/04:00pm 13.9 9.2 12.1 89 1.0 WNW 28 33 15 18 1008.4 1008.4 1.0
18/03:30pm 14.0 7.9 11.9 87 1.1 W 35 50 19 27 1007.8 1007.8 0.0
18/03:00pm 15.9 6.0 11.1 73 2.6 WSW 54 72 29 39 1007.1 1007.1 0.0
18/02:42pm 17.1 8.4 8.5 57 4.4 W 44 78 24 42 1006.3 1006.3 0.0
18/02:41pm 17.3 9.0 7.6 53 4.9 W 41 78 22 42 1006.4 1006.4 0.0
18/02:39pm 22.3 14.5 6.5 36 8.1 WNW 37 56 20 30 1005.8 1005.8 0.0
18/02:30pm 23.1 15.6 6.4 34 8.5 WNW 35 46 19 25 1005.3 1005.3 0.0
18/02:00pm 23.1 15.2 6.0 33 8.7 W 37 48 20 26 1005.2 1005.2 0.0
18/01:30pm 22.8 16.1 5.7 33 8.6 W 30 43 16 23 1005.3 1005.3 0.0
18/01:01pm 23.2 16.9 5.6 32 8.9 W 28 46 15 25 1005.6 1005.6 0.0
18/01:00pm 23.7 18.2 6.0 32 9.0 W 24 43 13 23 1005.5 1005.5 0.0
18/12:30pm 22.2 15.0 5.2 33 8.4 WNW 32 44 17 24 1005.9 1005.9 0.0
18/12:00pm 21.6 14.3 4.7 33 8.3 W 32 44 17 24 1006.1 1006.1 0.0
18/11:30am 22.2 15.0 5.2 33 8.4 W 32 44 17 24 1006.0 1006.0 0.0
18/11:25am 22.5 15.9 5.9 34 8.4 WNW 30 48 16 26 1005.9 1005.9 0.0
18/11:00am 22.2 13.8 5.6 34 8.3 W 39 52 21 28 1006.0 1006.0 0.0
18/10:50am 22.1 14.9 5.9 35 8.2 WNW 33 52 18 28 1005.9 1005.9 0.0

Latest Capital City Observations: Canberra | Sydney | Melbourne | Brisbane | Adelaide | Perth | Hobart | Darwin

Other Formats:

Comma delimited format used in spreadsheet applications
http://www.bom.gov.au/fwo/IDV60901/IDV60901.94854.axf

JavaScript Object Notation format (JSON) in row-major order
http://www.bom.gov.au/fwo/IDV60901/IDV60901.94854.json